createdAt,value
2016-03-30T16:58:23.912Z,24.11
2016-03-30T16:59:23.853Z,24.11
2016-03-30T17:00:23.793Z,24.04
2016-03-30T17:01:23.779Z,24.06
2016-03-30T17:02:23.721Z,24.03
2016-03-30T17:03:23.645Z,24.09
2016-03-30T17:04:23.616Z,24.06
2016-03-30T17:17:42.964Z,21.72
2016-03-30T17:18:46.123Z,21.66
2016-03-30T17:19:42.906Z,21.66
2016-03-30T17:20:42.815Z,21.89
2016-03-30T17:21:42.989Z,21.8
2016-03-30T17:22:42.789Z,21.85
2016-03-30T17:23:42.527Z,21.78
2016-03-30T17:24:45.669Z,21.81
2016-03-30T17:25:45.813Z,21.78
2016-03-30T17:26:45.581Z,21.85
2016-03-30T17:27:45.505Z,21.88
2016-03-30T17:28:46.883Z,22
2016-03-30T17:29:51.449Z,21.91
2016-03-30T17:30:45.607Z,21.99
2016-03-30T17:31:45.516Z,21.96
2016-03-30T17:32:48.269Z,22.03
2016-03-30T17:33:45.647Z,22.12
2016-03-30T17:34:42.181Z,22.08
2016-03-30T17:35:45.355Z,22.08
2016-03-30T17:36:45.108Z,22.08
2016-03-30T17:37:48.470Z,22.15
2016-03-30T17:38:42.004Z,22.12
2016-03-30T17:39:42.382Z,22.23
2016-03-30T17:40:42.009Z,22.23
2016-03-30T17:41:44.887Z,22.18
2016-03-30T17:42:45.046Z,22.3
2016-03-30T17:43:44.783Z,22.22
2016-03-30T17:44:41.739Z,22.41
2016-03-30T17:45:41.711Z,22.3
2016-03-30T17:46:44.728Z,22.36
2016-03-30T17:47:44.638Z,22.38
2016-03-30T17:48:41.562Z,22.4
2016-03-30T17:49:41.518Z,22.4
2016-03-30T17:50:44.475Z,22.4
2016-03-30T17:51:47.478Z,22.37
2016-03-30T17:52:41.417Z,22.44
2016-03-30T17:53:47.389Z,22.36
2016-03-30T17:54:41.329Z,22.47
2016-03-30T17:55:41.284Z,22.4
2016-03-30T17:56:41.241Z,22.49
2016-03-30T17:57:41.384Z,22.44
2016-03-30T17:58:41.152Z,22.44
2016-03-30T17:59:44.092Z,22.52
2016-03-30T18:00:44.047Z,22.47
2016-03-30T18:01:41.004Z,22.51
2016-03-30T18:02:40.960Z,22.51
2016-03-30T18:03:44.134Z,22.49
2016-03-30T18:04:40.902Z,22.49
2016-03-30T18:05:41.029Z,22.46
2016-03-30T18:06:40.830Z,22.51
2016-03-30T18:07:40.729Z,22.52
2016-03-30T18:08:43.888Z,22.49
2016-03-30T18:09:43.905Z,22.47
2016-03-30T18:10:46.612Z,22.55
2016-03-30T18:11:49.599Z,22.52
2016-03-30T18:12:40.539Z,22.58
2016-03-30T18:13:40.541Z,22.58
2016-03-30T18:14:43.763Z,22.59
2016-03-30T18:15:43.390Z,22.53
2016-03-30T18:16:43.363Z,22.59
2016-03-30T18:17:43.849Z,22.63
2016-03-30T18:18:40.259Z,22.68
2016-03-30T18:19:40.262Z,22.7
2016-03-30T18:20:43.186Z,22.65
2016-03-30T18:21:46.157Z,22.68
2016-03-30T18:22:43.098Z,22.62
2016-03-30T18:23:40.101Z,22.63
2016-03-30T18:24:45.993Z,22.61
2016-03-30T18:25:40.012Z,22.68
2016-03-30T18:26:39.952Z,22.7
2016-03-30T18:27:42.970Z,22.74
2016-03-30T18:28:39.879Z,22.76
2016-03-30T18:29:40.100Z,22.76
2016-03-30T18:30:39.759Z,22.77
2016-03-30T18:31:39.714Z,22.67
2016-03-30T18:32:42.592Z,22.74
2016-03-30T18:33:39.627Z,22.77
2016-03-30T18:34:42.582Z,22.74
2016-03-30T18:35:42.539Z,22.73
2016-03-30T18:36:42.494Z,22.71
2016-03-30T18:37:39.466Z,22.77
2016-03-30T18:38:39.406Z,22.78
2016-03-30T18:39:39.361Z,22.81
2016-03-30T18:40:39.536Z,22.78
2016-03-30T18:41:39.289Z,22.73
2016-03-30T18:42:39.244Z,22.8
2016-03-30T18:43:39.247Z,22.73
2016-03-30T18:44:42.172Z,22.81
2016-03-30T18:45:39.096Z,22.77
2016-03-30T18:46:39.287Z,22.86
2016-03-30T18:47:39.071Z,22.83
2016-03-30T18:48:39.198Z,22.83
2016-03-30T18:49:41.982Z,22.78
2016-03-30T18:50:39.923Z,22.81
2016-03-30T18:51:38.863Z,22.86
2016-03-30T18:52:38.881Z,22.78
2016-03-30T18:53:42.103Z,22.83
2016-03-30T18:54:39.371Z,22.76
2016-03-30T18:55:38.702Z,22.84
2016-03-30T18:56:38.673Z,22.83
2016-03-30T18:57:38.629Z,22.83
2016-03-30T18:58:44.882Z,22.78
2016-03-30T18:59:38.556Z,22.8
2016-03-30T19:00:38.512Z,22.84
2016-03-30T19:01:38.453Z,22.84
2016-03-30T19:02:41.627Z,22.89
2016-03-30T19:03:41.583Z,22.81
2016-03-30T19:04:41.351Z,22.81
2016-03-30T19:05:38.322Z,22.95
2016-03-30T19:06:38.481Z,22.81
2016-03-30T19:07:38.187Z,22.83
2016-03-30T19:08:38.175Z,22.99
2016-03-30T19:09:41.521Z,22.92
2016-03-30T19:10:38.070Z,22.96
2016-03-30T19:11:38.042Z,22.96
2016-03-30T19:12:37.982Z,22.96
2016-03-30T19:13:38.000Z,22.99
2016-03-30T19:14:37.924Z,22.98
2016-03-30T19:15:38.130Z,23.06
2016-03-30T19:16:37.820Z,23.1
2016-03-30T19:17:37.792Z,23.08
2016-03-30T19:18:37.748Z,23.07
2016-03-30T19:19:37.702Z,23.11
2016-03-30T19:20:37.559Z,23.13
2016-03-30T19:21:40.446Z,23.13
2016-03-30T19:22:37.553Z,23.04
2016-03-30T19:23:43.268Z,22.99
2016-03-30T19:24:37.132Z,23.02
2016-03-30T19:25:37.080Z,22.96
2016-03-30T19:26:37.213Z,22.91
2016-03-30T19:27:39.974Z,22.93
2016-03-30T19:28:36.874Z,22.91
2016-03-30T19:29:36.814Z,22.89
2016-03-30T19:30:36.776Z,22.93
2016-03-30T19:31:36.739Z,22.81
2016-03-30T19:32:39.685Z,22.83
2016-03-30T19:33:39.617Z,22.88
2016-03-30T19:34:42.584Z,22.83
2016-03-30T19:35:39.615Z,22.81
2016-03-30T19:36:36.504Z,22.78
2016-03-30T19:37:36.753Z,22.84
2016-03-30T19:38:36.425Z,22.81
2016-03-30T19:39:42.379Z,22.78
2016-03-30T19:40:36.349Z,22.8
2016-03-30T19:41:48.695Z,22.8
2016-03-30T19:42:39.243Z,22.73
2016-03-30T19:43:42.182Z,22.76
2016-03-30T19:44:39.528Z,22.73
2016-03-30T19:45:36.139Z,22.78
2016-03-30T19:46:39.080Z,22.7
2016-03-30T19:47:42.051Z,22.74
2016-03-30T19:48:38.975Z,22.65
2016-03-30T19:49:36.134Z,22.71
2016-03-30T19:50:39.089Z,22.68
2016-03-30T19:51:36.045Z,22.74
2016-03-30T19:52:36.313Z,22.71
2016-03-30T19:53:35.768Z,22.68
2016-03-30T19:54:35.708Z,22.65
2016-03-30T19:55:38.664Z,22.67
2016-03-30T19:56:35.837Z,22.63
2016-03-30T19:57:35.778Z,22.63
2016-03-30T19:58:38.546Z,22.55
2016-03-30T19:59:35.503Z,22.67
2016-03-30T20:00:35.661Z,22.65
2016-03-30T20:01:35.648Z,22.67
2016-03-30T20:02:35.417Z,22.61
2016-03-30T20:03:35.732Z,22.63
2016-03-30T20:04:35.312Z,22.59
2016-03-30T20:05:38.581Z,22.62
2016-03-30T20:06:35.240Z,22.61
2016-03-30T20:07:35.211Z,22.63
2016-03-30T20:08:35.172Z,22.67
2016-03-30T20:09:38.347Z,22.55
2016-03-30T20:10:38.083Z,22.56
2016-03-30T20:11:35.008Z,22.53
2016-03-30T20:12:35.183Z,22.61
2016-03-30T20:13:34.952Z,22.44
2016-03-30T20:14:34.861Z,22.55
2016-03-30T20:15:34.910Z,22.55
2016-03-30T20:16:34.787Z,22.53
2016-03-30T20:17:34.774Z,22.51
2016-03-30T20:18:34.699Z,22.51
2016-03-30T20:19:37.686Z,22.43
2016-03-30T20:20:34.861Z,22.46
2016-03-30T20:21:34.598Z,22.47
2016-03-30T20:22:34.741Z,22.43
2016-03-30T20:23:37.526Z,22.44
2016-03-30T20:24:37.669Z,22.41
2016-03-30T20:25:34.422Z,22.44
2016-03-30T20:26:43.409Z,22.43
2016-03-30T20:27:37.365Z,22.37
2016-03-30T20:28:37.351Z,22.4
2016-03-30T20:29:46.260Z,22.4
2016-03-30T20:30:37.607Z,22.4
2016-03-30T20:31:37.453Z,22.38
2016-03-30T20:32:34.128Z,22.4
2016-03-30T20:33:37.318Z,22.38
2016-03-30T20:34:34.023Z,22.36
2016-03-30T20:35:33.995Z,22.41
2016-03-30T20:36:33.967Z,22.43
2016-03-30T20:37:36.939Z,22.38
2016-03-30T20:38:39.878Z,22.37
2016-03-30T20:39:33.834Z,22.36
2016-03-30T20:40:33.790Z,22.33
2016-03-30T20:41:36.761Z,22.36
2016-03-30T20:42:33.686Z,22.36
2016-03-30T20:43:36.672Z,22.36
2016-03-30T20:44:36.676Z,22.23
2016-03-30T20:45:33.788Z,22.37
2016-03-30T20:46:36.524Z,22.25
2016-03-30T20:47:33.480Z,22.23
2016-03-30T20:48:33.484Z,22.28
2016-03-30T20:49:33.408Z,22.25
2016-03-30T20:50:33.380Z,22.31
2016-03-30T20:51:33.304Z,22.23
2016-03-30T20:52:33.291Z,22.36
2016-03-30T20:53:33.247Z,22.19
2016-03-30T20:54:33.203Z,22.25
2016-03-30T20:55:33.158Z,22.28
2016-03-30T20:56:33.318Z,22.3
2016-03-30T20:57:33.273Z,22.23
2016-03-30T20:58:33.027Z,22.19
2016-03-30T20:59:33.014Z,22.25
2016-03-30T21:00:38.954Z,22.22
2016-03-30T21:01:32.910Z,22.16
2016-03-30T21:02:35.881Z,22.12
2016-03-30T21:03:38.821Z,22.3
2016-03-30T21:04:38.793Z,22.23
2016-03-30T21:05:35.732Z,22.15
2016-03-30T21:06:35.721Z,22.16
2016-03-30T21:07:35.832Z,22.18
2016-03-30T21:08:32.598Z,22.07
2016-03-30T21:09:35.573Z,22.16
2016-03-30T21:10:32.511Z,22.14
2016-03-30T21:11:38.485Z,22.14
2016-03-30T21:12:32.453Z,22.16
2016-03-30T21:13:38.443Z,22.12
2016-03-30T21:14:32.349Z,22.16
2016-03-30T21:15:32.305Z,22.07
2016-03-30T21:16:32.292Z,22.18
2016-03-30T21:17:32.264Z,22.16
2016-03-30T21:18:32.219Z,22.12
2016-03-30T21:19:35.191Z,22.1
2016-03-30T21:20:32.085Z,22.19
2016-03-30T21:21:35.134Z,22.14
2016-03-30T21:22:35.059Z,22.14
2016-03-30T21:23:34.982Z,22.16
2016-03-30T21:24:31.940Z,22.12
2016-03-30T21:25:34.942Z,22.16
2016-03-30T21:26:34.851Z,22.14
2016-03-30T21:27:34.807Z,22.1
2016-03-30T21:28:31.762Z,22.12
2016-03-30T21:29:34.734Z,22.14
2016-03-30T21:30:31.737Z,22.01
2016-03-30T21:31:31.833Z,22
2016-03-30T21:32:31.601Z,22.03
2016-03-30T21:33:31.573Z,21.99
2016-03-30T21:34:34.904Z,21.97
2016-03-30T21:35:31.890Z,21.99
2016-03-30T21:36:31.425Z,22.12
2016-03-30T21:37:31.365Z,22.1
2016-03-30T21:38:31.320Z,22.01
2016-03-30T21:39:31.308Z,22.08
2016-03-30T21:40:31.450Z,22.06
2016-03-30T21:41:31.203Z,22.03
2016-03-30T21:42:31.175Z,22
2016-03-30T21:43:31.131Z,22.06
2016-03-30T21:44:31.071Z,22.03
2016-03-30T21:45:31.417Z,22.03
2016-03-30T21:46:31.202Z,22.04
2016-03-30T21:47:30.938Z,22.03
2016-03-30T21:48:30.816Z,22
2016-03-30T21:49:30.866Z,21.97
2016-03-30T21:50:30.837Z,21.92
2016-03-30T21:51:30.777Z,21.94
2016-03-30T21:52:30.780Z,21.96
2016-03-30T21:53:30.892Z,22
2016-03-30T21:54:33.896Z,21.94
2016-03-30T21:55:33.819Z,22
2016-03-30T21:56:30.571Z,21.92
2016-03-30T21:57:30.529Z,21.92
2016-03-30T21:58:30.499Z,21.99
2016-03-30T21:59:30.642Z,21.96
2016-03-30T22:00:30.396Z,21.83
2016-03-30T22:01:30.351Z,21.83
2016-03-30T22:02:30.526Z,21.88
2016-03-30T22:03:30.326Z,21.84
2016-03-30T22:04:30.250Z,21.84
2016-03-30T22:05:30.424Z,21.88
2016-03-30T22:06:30.146Z,21.85
2016-03-30T22:07:30.320Z,21.85
2016-03-30T22:08:30.103Z,21.89
2016-03-30T22:09:33.061Z,21.85
2016-03-30T22:10:29.984Z,21.83
2016-03-30T22:11:34.378Z,21.83
2016-03-30T22:12:29.881Z,21.78
2016-03-30T22:13:29.852Z,21.88
2016-03-30T22:14:29.808Z,21.84
2016-03-30T22:15:29.983Z,21.83
2016-03-30T22:16:29.719Z,21.83
2016-03-30T22:17:29.675Z,21.78
2016-03-30T22:18:29.663Z,21.81
2016-03-30T22:19:29.587Z,21.83
2016-03-30T22:20:29.622Z,21.77
2016-03-30T22:21:29.514Z,21.75
2016-03-30T22:22:29.563Z,21.7
2016-03-30T22:23:29.426Z,21.72
2016-03-30T22:24:29.413Z,21.72
2016-03-30T22:25:29.337Z,21.7
2016-03-30T22:26:29.356Z,21.7
2016-03-30T22:27:29.561Z,21.7
2016-03-30T22:28:29.220Z,21.62
2016-03-30T22:29:29.410Z,21.65
2016-03-30T22:30:32.179Z,21.69
2016-03-30T22:31:29.572Z,21.69
2016-03-30T22:32:32.247Z,21.63
2016-03-30T22:33:32.328Z,21.59
2016-03-30T22:34:28.955Z,21.62
2016-03-30T22:35:28.926Z,21.65
2016-03-30T22:36:28.867Z,21.63
2016-03-30T22:37:32.166Z,21.54
2016-03-30T22:38:31.997Z,21.68
2016-03-30T22:39:28.750Z,21.58
2016-03-30T22:40:29.002Z,21.59
2016-03-30T22:41:28.677Z,21.62
2016-03-30T22:42:28.820Z,21.58
2016-03-30T22:43:28.573Z,21.6
2016-03-30T22:44:32.638Z,21.59
2016-03-30T22:45:31.500Z,21.58
2016-03-30T22:46:31.628Z,21.6
2016-03-30T22:47:31.428Z,21.48
2016-03-30T22:48:28.618Z,21.5
2016-03-30T22:49:28.511Z,21.56
2016-03-30T22:50:31.280Z,21.54
2016-03-30T22:51:31.236Z,21.56
2016-03-30T22:52:40.238Z,21.53
2016-03-30T22:53:34.179Z,21.51
2016-03-30T22:54:31.525Z,21.6
2016-03-30T22:55:28.090Z,21.53
2016-03-30T22:56:30.999Z,21.6
2016-03-30T22:57:31.033Z,21.58
2016-03-30T22:58:33.926Z,21.51
2016-03-30T22:59:30.882Z,21.5
2016-03-30T23:00:31.354Z,21.45
2016-03-30T23:01:30.809Z,21.51
2016-03-30T23:02:27.749Z,21.43
2016-03-30T23:03:27.706Z,21.47
2016-03-30T23:04:27.692Z,21.5
2016-03-30T23:05:30.633Z,21.44
2016-03-30T23:06:27.698Z,21.38
2016-03-30T23:07:27.533Z,21.38
2016-03-30T23:08:27.536Z,21.47
2016-03-30T23:09:27.461Z,21.37
2016-03-30T23:10:33.432Z,21.38
2016-03-30T23:11:30.576Z,21.38
2016-03-30T23:12:36.344Z,21.38
2016-03-30T23:13:30.377Z,21.37
2016-03-30T23:14:33.240Z,21.3
2016-03-30T23:15:33.242Z,21.33
2016-03-30T23:16:27.370Z,21.35
2016-03-30T23:17:30.201Z,21.37
2016-03-30T23:18:27.297Z,21.32
2016-03-30T23:19:27.019Z,21.3
2016-03-30T23:20:36.194Z,21.29
2016-03-30T23:21:27.368Z,21.3
2016-03-30T23:22:29.917Z,21.28
2016-03-30T23:23:26.858Z,21.22
2016-03-30T23:24:26.860Z,21.26
2016-03-30T23:25:33.066Z,21.29
2016-03-30T23:26:26.771Z,21.23
2016-03-30T23:27:29.696Z,21.29
2016-03-30T23:28:29.871Z,21.28
2016-03-30T23:29:27.155Z,21.26
2016-03-30T23:30:26.564Z,21.33
2016-03-30T23:31:26.520Z,21.26
2016-03-30T23:32:26.538Z,21.25
2016-03-30T23:33:26.916Z,21.28
2016-03-30T23:34:26.387Z,21.22
2016-03-30T23:35:26.342Z,21.25
2016-03-30T23:36:26.284Z,21.25
2016-03-30T23:37:26.286Z,21.28
2016-03-30T23:38:26.211Z,21.26
2016-03-30T23:39:26.386Z,21.29
2016-03-30T23:40:25.966Z,21.25
2016-03-30T23:41:26.078Z,21.32
2016-03-30T23:42:32.050Z,21.32
2016-03-30T23:43:26.005Z,21.26
2016-03-30T23:44:28.961Z,21.2
2016-03-30T23:45:28.901Z,21.2
2016-03-30T23:46:28.872Z,21.22
2016-03-30T23:47:25.813Z,21.22
2016-03-30T23:48:28.785Z,21.17
2016-03-30T23:49:28.740Z,21.25
2016-03-30T23:50:25.930Z,21.25
2016-03-30T23:51:25.652Z,21.17
2016-03-30T23:52:25.670Z,21.14
2016-03-30T23:53:25.579Z,21.15
2016-03-30T23:54:25.551Z,21.14
2016-03-30T23:55:25.678Z,21.19
2016-03-30T23:56:28.728Z,21.13
2016-03-30T23:57:34.402Z,21.2
2016-03-30T23:58:31.374Z,21.17
2016-03-30T23:59:28.517Z,21.15
